Time;durP1;ratioP1;P1;durP2;ratioP2;P2;SDS_P1;SDS_P2;PMS_P1;PMS_P2;Temp;Humidity;BMP_temperature;BMP_pressure;BME280_temperature;BME280_humidity;BME280_pressure;Samples;Min_cycle;Max_cycle;Signal;HPM_P1;HPM_P2
2022/02/07 00:08:39;;;;;;;1.88;0.38;;;5.70;99.90;;;;;;20827268;28;20632;-45
2022/02/07 00:18:42;;;;;;;1.17;0.17;;;5.60;99.90;;;;;;20847480;28;20099;-45
2022/02/07 00:28:44;;;;;;;5.88;0.50;;;5.50;99.90;;;;;;20824347;28;20050;-45
2022/02/07 00:38:52;;;;;;;0.00;0.00;;;5.70;99.90;;;;;;20839316;28;20092;-45
2022/02/07 00:48:53;;;;;;;1.65;0.20;;;4.70;99.90;;;;;;20846888;28;20056;-45
2022/02/07 00:58:54;;;;;;;0.55;0.20;;;4.60;99.90;;;;;;20838280;28;20037;-45
2022/02/07 01:09:10;;;;;;;5.27;0.83;;;4.60;99.90;;;;;;20841566;28;20056;-45
2022/02/07 02:00:19;;;;;;;6.45;1.58;;;4.80;99.90;;;;;;20843938;28;20053;-45
2022/02/07 02:10:20;;;;;;;3.55;0.80;;;5.00;99.90;;;;;;20848070;28;20041;-45
2022/02/07 02:51:19;;;;;;;2.70;0.52;;;5.70;99.90;;;;;;20829371;28;20261;-45
2022/02/07 03:01:20;;;;;;;2.03;0.53;;;5.90;99.90;;;;;;20839695;28;20048;-45
2022/02/07 03:11:23;;;;;;;9.65;0.93;;;5.80;99.90;;;;;;20823834;28;20292;-45
2022/02/07 03:21:24;;;;;;;4.93;0.43;;;6.00;99.90;;;;;;20864247;28;20120;-45
2022/02/07 03:31:25;;;;;;;4.43;0.75;;;5.80;99.90;;;;;;20857680;28;20041;-45
2022/02/07 03:41:26;;;;;;;3.17;0.50;;;5.90;99.90;;;;;;20825497;28;20075;-45
2022/02/07 03:51:27;;;;;;;1.85;0.63;;;6.00;99.90;;;;;;20844504;28;20053;-45
2022/02/07 04:01:28;;;;;;;4.25;0.68;;;6.00;99.90;;;;;;20855230;28;20544;-45
2022/02/07 04:11:38;;;;;;;2.75;0.47;;;6.10;99.90;;;;;;20814788;28;20045;-46
2022/02/07 04:21:42;;;;;;;2.08;0.73;;;6.10;99.90;;;;;;20832235;28;20431;-45
2022/02/07 04:31:43;;;;;;;5.20;0.68;;;6.20;99.90;;;;;;20828724;28;20049;-45
2022/02/07 04:41:44;;;;;;;5.93;0.65;;;6.10;99.90;;;;;;20832682;28;20048;-45
2022/02/07 05:02:04;;;;;;;10.27;1.85;;;5.80;99.90;;;;;;20827190;28;20099;-45
2022/02/07 05:22:29;;;;;;;9.00;1.00;;;6.20;99.90;;;;;;20854714;28;20041;-45
2022/02/07 05:32:30;;;;;;;7.43;0.50;;;6.10;99.90;;;;;;20869478;28;20056;-46
2022/02/07 05:42:32;;;;;;;3.75;1.48;;;6.20;99.90;;;;;;20863443;28;20056;-45
2022/02/07 05:52:33;;;;;;;10.55;0.73;;;6.00;99.90;;;;;;20861293;28;20043;-45
2022/02/07 06:02:33;;;;;;;3.87;0.60;;;6.00;99.90;;;;;;20871054;28;20045;-45
2022/02/07 06:12:35;;;;;;;6.75;0.90;;;5.90;99.90;;;;;;20850441;28;20698;-45
2022/02/07 06:22:36;;;;;;;1.23;0.20;;;5.90;99.90;;;;;;20865108;28;20073;-45
2022/02/07 06:32:40;;;;;;;5.18;0.88;;;6.00;99.90;;;;;;20861486;28;20037;-45
2022/02/07 06:42:41;;;;;;;11.85;1.50;;;5.90;99.90;;;;;;20859026;28;20056;-45
2022/02/07 06:52:42;;;;;;;2.95;0.77;;;5.80;99.90;;;;;;20827236;28;20813;-45
2022/02/07 07:02:43;;;;;;;3.75;1.75;;;5.70;99.90;;;;;;20860058;28;20509;-45
2022/02/07 07:12:47;;;;;;;10.95;1.08;;;5.60;99.90;;;;;;20858424;28;20528;-45
2022/02/07 07:22:48;;;;;;;9.60;0.93;;;5.50;99.90;;;;;;20860546;28;20029;-46
2022/02/07 07:32:49;;;;;;;8.77;1.27;;;5.60;99.90;;;;;;20850542;28;20515;-45
2022/02/07 07:42:55;;;;;;;2.70;1.13;;;5.70;99.90;;;;;;20848472;28;20780;-46
2022/02/07 08:02:56;;;;;;;9.77;1.10;;;5.80;99.90;;;;;;20871746;28;20052;-45
2022/02/07 08:12:57;;;;;;;6.90;0.77;;;5.90;99.90;;;;;;20784851;28;20048;-46
2022/02/07 08:23:02;;;;;;;13.60;2.78;;;5.90;99.90;;;;;;20806579;28;20528;-45
2022/02/07 08:33:03;;;;;;;2.92;1.13;;;6.00;99.90;;;;;;20794818;28;20051;-45
2022/02/07 08:43:05;;;;;;;3.85;0.63;;;6.10;99.90;;;;;;20882102;28;20077;-45
2022/02/07 08:53:06;;;;;;;8.50;1.05;;;6.30;99.90;;;;;;20864025;28;20052;-45
2022/02/07 09:13:28;;;;;;;4.95;0.70;;;6.60;99.90;;;;;;20874784;28;20044;-45
2022/02/07 09:23:30;;;;;;;8.93;0.93;;;6.80;99.90;;;;;;20884127;28;20029;-45
2022/02/07 09:33:30;;;;;;;12.30;1.80;;;7.10;99.90;;;;;;20884781;28;20051;-45
2022/02/07 09:43:34;;;;;;;4.25;0.40;;;7.40;99.90;;;;;;20885633;28;20029;-45
2022/02/07 09:53:36;;;;;;;3.50;0.88;;;7.60;99.90;;;;;;20875569;28;20080;-46
2022/02/07 10:44:59;;;;;;;7.25;0.80;;;8.30;99.90;;;;;;20852355;28;20658;-46
2022/02/07 10:55:01;;;;;;;5.57;0.68;;;8.40;99.90;;;;;;20841729;28;20076;-46
2022/02/07 11:05:08;;;;;;;3.10;0.60;;;8.20;99.90;;;;;;20825493;28;20128;-46
2022/02/07 11:15:33;;;;;;;3.75;0.65;;;8.40;99.90;;;;;;20855545;28;20300;-46
2022/02/07 11:25:48;;;;;;;9.10;0.90;;;8.30;99.90;;;;;;20858483;28;20535;-46
2022/02/07 11:35:50;;;;;;;20.20;1.17;;;8.30;99.90;;;;;;20858951;28;20060;-46
2022/02/07 11:46:08;;;;;;;2.88;0.28;;;8.60;99.90;;;;;;20873172;28;20120;-46
2022/02/07 11:56:35;;;;;;;5.65;1.30;;;9.60;99.90;;;;;;20868091;28;20040;-46
2022/02/07 12:06:35;;;;;;;4.07;0.57;;;10.20;99.90;;;;;;20858043;28;20041;-46
2022/02/07 12:16:46;;;;;;;13.15;0.52;;;10.50;99.90;;;;;;20838159;28;20052;-46
2022/02/07 12:26:49;;;;;;;6.55;0.90;;;9.80;99.90;;;;;;20848479;28;20040;-46
2022/02/07 12:36:52;;;;;;;0.85;0.30;;;9.20;99.90;;;;;;20845371;28;20115;-46
2022/02/07 12:46:54;;;;;;;2.20;0.60;;;9.40;99.90;;;;;;20847237;28;20045;-46
2022/02/07 12:57:01;;;;;;;1.83;0.40;;;9.70;99.90;;;;;;20849611;28;20049;-46
2022/02/07 13:07:05;;;;;;;3.72;0.60;;;10.10;99.90;;;;;;20853250;28;20747;-46
2022/02/07 13:17:07;;;;;;;7.40;0.60;;;10.40;99.90;;;;;;20724818;28;20483;-46
2022/02/07 13:27:17;;;;;;;1.58;0.40;;;10.80;99.90;;;;;;20362124;28;20045;-46
2022/02/07 13:37:24;;;;;;;0.70;0.30;;;10.40;99.90;;;;;;20368331;28;20686;-46
2022/02/07 13:47:26;;;;;;;2.07;0.23;;;10.00;99.90;;;;;;20374050;28;20437;-46
2022/02/07 13:57:27;;;;;;;2.83;0.52;;;10.60;99.90;;;;;;20356508;28;20045;-46
2022/02/07 14:07:27;;;;;;;4.70;0.40;;;10.90;99.90;;;;;;20689546;28;20069;-46
2022/02/07 14:17:28;;;;;;;4.20;0.60;;;10.60;99.90;;;;;;20875980;28;20683;-46
2022/02/07 14:27:31;;;;;;;1.00;0.13;;;9.80;99.90;;;;;;20870522;28;20798;-46
2022/02/07 14:37:32;;;;;;;3.97;0.35;;;9.50;99.90;;;;;;20880163;28;20712;-46
2022/02/07 14:47:50;;;;;;;1.13;0.20;;;9.70;99.90;;;;;;20796995;28;20692;-46
2022/02/07 14:57:52;;;;;;;1.35;0.13;;;10.40;99.90;;;;;;20518692;28;20047;-46
2022/02/07 15:07:52;;;;;;;1.70;0.30;;;10.40;99.90;;;;;;20496240;28;20289;-45
2022/02/07 15:17:55;;;;;;;2.35;0.20;;;10.10;99.90;;;;;;20451718;28;20252;-45
2022/02/07 15:28:04;;;;;;;1.30;0.22;;;9.70;99.90;;;;;;20630417;28;20038;-45
2022/02/07 15:38:06;;;;;;;1.17;0.20;;;9.00;99.90;;;;;;20885796;28;20051;-45
2022/02/07 15:48:07;;;;;;;7.18;0.60;;;8.80;99.90;;;;;;20904687;28;20132;-45
2022/02/07 15:58:08;;;;;;;5.40;0.45;;;8.30;99.90;;;;;;20881853;28;20045;-45
2022/02/07 16:08:12;;;;;;;4.97;1.95;;;8.00;99.90;;;;;;20839229;28;20294;-44
2022/02/07 16:18:16;;;;;;;6.47;1.75;;;7.50;99.90;;;;;;20886461;28;20085;-45
2022/02/07 16:28:17;;;;;;;3.72;0.38;;;7.10;99.90;;;;;;20894030;28;20131;-45
2022/02/07 16:38:18;;;;;;;5.10;2.38;;;7.00;99.90;;;;;;20864944;28;20040;-45
2022/02/07 16:48:19;;;;;;;7.55;0.68;;;6.90;99.90;;;;;;20846827;28;20374;-45
2022/02/07 16:58:20;;;;;;;1.48;0.20;;;6.70;99.90;;;;;;20840711;28;20228;-45
2022/02/07 17:08:21;;;;;;;5.30;0.30;;;6.60;99.90;;;;;;20853034;28;20396;-45
2022/02/07 17:18:22;;;;;;;4.15;0.55;;;6.50;99.90;;;;;;20849826;28;20279;-45
2022/02/07 17:28:23;;;;;;;0.88;0.30;;;6.50;99.90;;;;;;20854495;28;20083;-45
2022/02/07 17:38:28;;;;;;;2.70;0.63;;;6.40;99.90;;;;;;20838538;28;20512;-45
2022/02/07 17:48:29;;;;;;;1.67;0.35;;;6.30;99.90;;;;;;20859437;28;20283;-45
2022/02/07 17:58:30;;;;;;;8.88;3.53;;;6.30;99.90;;;;;;20786930;28;20037;-45
2022/02/07 18:08:31;;;;;;;2.78;0.35;;;6.20;99.90;;;;;;20761355;28;20041;-45
2022/02/07 18:18:34;;;;;;;12.38;1.70;;;6.30;99.90;;;;;;20762350;28;20402;-45
2022/02/07 18:28:36;;;;;;;1.90;0.60;;;6.40;99.90;;;;;;20537618;28;24619;-45
2022/02/07 18:38:40;;;;;;;2.05;0.50;;;6.40;99.90;;;;;;20278492;28;20041;-45
2022/02/07 18:48:41;;;;;;;9.70;1.17;;;6.40;99.90;;;;;;20267453;28;20384;-45
2022/02/07 18:58:54;;;;;;;5.50;1.00;;;6.40;99.90;;;;;;20571626;28;20780;-45
2022/02/07 19:08:56;;;;;;;3.13;0.52;;;6.40;99.90;;;;;;20820250;28;20849;-45
2022/02/07 19:19:02;;;;;;;13.45;2.78;;;6.40;99.90;;;;;;20359980;28;20029;-45
2022/02/07 19:29:13;;;;;;;1.63;0.52;;;6.30;99.90;;;;;;20389283;28;20045;-45
2022/02/07 19:39:14;;;;;;;1.35;0.55;;;6.20;99.90;;;;;;20399547;28;20838;-45
2022/02/07 19:49:15;;;;;;;2.97;0.95;;;6.20;99.90;;;;;;20559907;28;20214;-45
2022/02/07 19:59:16;;;;;;;1.83;0.60;;;6.20;99.90;;;;;;20859629;28;20044;-45
2022/02/07 20:09:21;;;;;;;1.90;0.45;;;6.10;99.90;;;;;;20855202;28;20052;-45
2022/02/07 20:19:22;;;;;;;1.65;0.40;;;6.10;99.90;;;;;;20864416;28;20048;-45
2022/02/07 20:29:23;;;;;;;2.33;0.67;;;6.10;99.90;;;;;;20870916;28;20048;-45
2022/02/07 20:39:24;;;;;;;2.60;0.57;;;6.10;99.90;;;;;;20868833;28;20316;-45
2022/02/07 20:49:28;;;;;;;5.28;0.95;;;6.10;99.90;;;;;;20852496;28;20045;-45
2022/02/07 20:59:30;;;;;;;3.40;0.80;;;6.20;99.90;;;;;;20849103;28;20068;-45
2022/02/07 21:09:32;;;;;;;4.32;0.90;;;6.20;99.90;;;;;;20865020;28;20128;-45
2022/02/07 21:19:38;;;;;;;2.03;0.57;;;6.20;99.90;;;;;;20848675;28;20037;-45
2022/02/07 21:29:39;;;;;;;11.43;3.47;;;6.30;99.90;;;;;;20849974;28;20057;-45
2022/02/07 21:39:40;;;;;;;2.13;0.80;;;6.30;99.90;;;;;;20829173;28;20072;-45
2022/02/07 21:49:40;;;;;;;7.75;0.70;;;6.50;99.90;;;;;;20851985;28;20575;-45
2022/02/07 21:59:41;;;;;;;2.33;0.90;;;6.60;99.90;;;;;;20867422;28;20041;-45
2022/02/07 22:09:49;;;;;;;6.97;2.13;;;6.70;99.90;;;;;;20848821;28;20037;-45
2022/02/07 22:19:50;;;;;;;6.20;1.13;;;7.10;99.90;;;;;;20850543;28;20040;-45
2022/02/07 22:29:54;;;;;;;7.13;1.10;;;7.40;99.90;;;;;;20857150;28;20045;-45
2022/02/07 22:39:55;;;;;;;5.68;1.05;;;7.60;99.90;;;;;;20848106;28;20524;-45
2022/02/07 22:49:56;;;;;;;8.63;1.00;;;7.70;99.90;;;;;;20844279;28;20498;-45
2022/02/07 22:59:57;;;;;;;6.80;1.17;;;7.70;99.90;;;;;;20837151;28;20559;-45
2022/02/07 23:21:08;;;;;;;2.40;0.80;;;7.80;99.90;;;;;;20841951;28;20552;-45
